Time;durP1;ratioP1;P1;durP2;ratioP2;P2;SDS_P1;SDS_P2;PMS_P1;PMS_P2;Temp;Humidity;BMP_temperature;BMP_pressure;BME280_temperature;BME280_humidity;BME280_pressure;Samples;Min_cycle;Max_cycle;Signal;HPM_P1;HPM_P2
2021/12/14 00:01:09;;;;;;;39.42;18.85;;;;;;;0.60;97.37;99700.78;5135013;27;20036;-93
2021/12/14 00:03:40;;;;;;;36.50;17.58;;;;;;;0.37;98.07;99657.41;5135390;27;20036;-95
2021/12/14 00:06:07;;;;;;;35.88;18.63;;;;;;;0.40;97.65;99670.56;5135668;27;20039;-95
2021/12/14 00:08:46;;;;;;;37.97;20.08;;;;;;;0.40;98.24;99668.81;5135698;27;20412;-94
2021/12/14 00:11:27;;;;;;;33.90;18.63;;;;;;;0.33;97.78;99655.53;5135138;27;20045;-95
2021/12/14 00:14:11;;;;;;;36.97;20.10;;;;;;;0.50;97.81;99690.91;5134792;27;20039;-95
2021/12/14 00:16:37;;;;;;;33.22;18.20;;;;;;;0.32;98.06;99667.72;5134778;27;20040;-94
2021/12/14 00:19:05;;;;;;;31.85;18.70;;;;;;;0.32;98.61;99670.34;5135060;27;20043;-95
2021/12/14 00:21:31;;;;;;;40.65;20.27;;;;;;;0.29;97.47;99662.41;5136251;27;20039;-94
2021/12/14 00:27:06;;;;;;;37.95;18.52;;;;;;;0.28;98.74;99667.59;5137283;27;20845;-95
2021/12/14 00:29:38;;;;;;;39.15;20.48;;;;;;;0.24;98.72;99666.63;5137150;27;20050;-95
2021/12/14 00:32:12;;;;;;;46.53;25.08;;;;;;;0.30;98.88;99666.78;5137451;27;20047;-96
2021/12/14 00:34:42;;;;;;;47.58;24.55;;;;;;;0.28;98.58;99664.97;5136055;27;20058;-94
2021/12/14 00:37:10;;;;;;;41.05;22.38;;;;;;;0.30;98.73;99674.63;5136093;27;20044;-95
2021/12/14 00:39:37;;;;;;;53.37;26.33;;;;;;;0.24;97.51;99666.63;5136045;27;20054;-95
2021/12/14 00:42:08;;;;;;;49.53;26.67;;;;;;;0.19;98.18;99660.38;5137185;27;20275;-95
2021/12/14 00:44:36;;;;;;;47.08;27.08;;;;;;;0.25;98.32;99663.16;5136064;27;20067;-95
2021/12/14 00:47:04;;;;;;;54.60;26.83;;;;;;;0.31;98.23;99678.16;5136154;27;20043;-96
2021/12/14 00:49:30;;;;;;;48.45;26.58;;;;;;;0.33;98.85;99689.56;5135068;27;20066;-94
2021/12/14 00:51:56;;;;;;;45.30;24.08;;;;;;;0.33;98.47;99679.97;5137272;27;20050;-94
2021/12/14 00:54:25;;;;;;;38.00;21.30;;;;;;;0.18;98.29;99671.69;5136993;27;20071;-95
2021/12/14 00:56:51;;;;;;;43.35;21.65;;;;;;;0.16;98.38;99676.88;5135367;28;20046;-94
2021/12/14 00:59:20;;;;;;;41.28;22.05;;;;;;;0.20;97.75;99681.34;5136332;27;20054;-94
2021/12/14 01:01:50;;;;;;;38.95;20.20;;;;;;;0.27;97.06;99663.22;5134829;27;20039;-95
2021/12/14 01:04:20;;;;;;;35.25;19.50;;;;;;;0.27;97.16;99665.84;5134977;27;20062;-96
2021/12/14 01:06:46;;;;;;;40.92;21.48;;;;;;;0.49;96.58;99711.81;5135511;27;20035;-95
2021/12/14 01:09:14;;;;;;;35.05;20.13;;;;;;;0.30;96.92;99672.00;5134621;27;20043;-96
2021/12/14 01:11:45;;;;;;;39.78;20.88;;;;;;;0.38;96.88;99675.75;5136890;27;20059;-93
2021/12/14 01:14:18;;;;;;;33.05;19.67;;;;;;;0.36;95.97;99668.69;5135469;27;20036;-95
2021/12/14 01:16:54;;;;;;;37.53;22.52;;;;;;;0.50;95.38;99672.59;5136798;27;20047;-95
2021/12/14 01:19:26;;;;;;;38.65;21.50;;;;;;;0.84;95.04;99714.50;5136417;27;20099;-95
2021/12/14 01:25:10;;;;;;;44.70;22.70;;;;;;;0.72;95.34;99681.03;5155736;27;20380;-95
2021/12/14 01:27:45;;;;;;;40.45;23.40;;;;;;;0.93;94.43;99718.28;5136380;27;20075;-94
2021/12/14 01:30:26;;;;;;;40.55;22.13;;;;;;;0.79;93.59;99693.44;5136069;27;20134;-94
2021/12/14 01:32:56;;;;;;;42.83;23.15;;;;;;;0.72;94.44;99686.28;5136753;27;20043;-95
2021/12/14 01:35:28;;;;;;;44.78;23.27;;;;;;;0.65;94.91;99695.69;5136405;27;20045;-95
2021/12/14 01:41:02;;;;;;;40.00;22.13;;;;;;;0.41;96.47;99682.78;5098110;27;20443;-95
2021/12/14 01:43:33;;;;;;;39.85;23.60;;;;;;;0.43;96.77;99690.69;5095899;28;20044;-94
2021/12/14 01:46:09;;;;;;;44.72;23.75;;;;;;;0.32;96.74;99690.38;5095104;28;20054;-94
2021/12/14 01:48:36;;;;;;;42.72;21.17;;;;;;;0.23;97.20;99675.31;5095368;28;20048;-95
2021/12/14 01:51:06;;;;;;;39.17;21.58;;;;;;;0.32;96.88;99698.22;5095195;28;20041;-94
2021/12/14 01:53:33;;;;;;;37.88;20.65;;;;;;;0.24;97.19;99697.13;5094980;28;20047;-93
2021/12/14 01:56:05;;;;;;;39.35;21.25;;;;;;;0.08;97.35;99677.47;5095684;28;20492;-93
2021/12/14 01:58:38;;;;;;;40.28;21.15;;;;;;;0.15;98.39;99703.88;5095522;28;20044;-94
2021/12/14 02:01:10;;;;;;;33.95;19.52;;;;;;;-0.06;98.03;99666.63;5095449;28;20094;-94
2021/12/14 02:03:41;;;;;;;35.53;20.63;;;;;;;0.06;97.88;99689.63;5095046;28;20132;-93
2021/12/14 02:06:14;;;;;;;36.17;19.17;;;;;;;-0.12;99.13;99677.78;5096312;28;20044;-95
2021/12/14 02:08:41;;;;;;;34.45;19.42;;;;;;;-0.12;99.57;99680.38;5095908;28;20450;-95
2021/12/14 02:11:10;;;;;;;38.47;20.58;;;;;;;-0.16;98.92;99685.47;5096411;28;20045;-95
2021/12/14 02:13:39;;;;;;;29.58;17.10;;;;;;;-0.12;99.60;99695.19;5094332;28;20044;-95
2021/12/14 02:16:07;;;;;;;34.70;20.15;;;;;;;-0.17;100.00;99684.59;5095010;28;20044;-95
2021/12/14 02:18:42;;;;;;;36.15;20.10;;;;;;;-0.21;100.00;99678.38;5096517;28;20453;-94
2021/12/14 02:21:14;;;;;;;32.25;18.83;;;;;;;-0.07;99.67;99702.31;5097272;28;20040;-94
2021/12/14 02:23:45;;;;;;;35.85;19.45;;;;;;;-0.16;99.07;99675.03;5076424;28;20044;-95
2021/12/14 02:26:17;;;;;;;31.02;19.23;;;;;;;-0.06;98.96;99692.78;5075811;28;20048;-96
2021/12/14 02:28:44;;;;;;;34.88;18.95;;;;;;;-0.21;99.32;99673.16;5075029;28;20048;-95
2021/12/14 02:31:14;;;;;;;34.67;18.15;;;;;;;-0.24;99.61;99673.06;5076283;28;20037;-95
2021/12/14 02:33:45;;;;;;;37.20;21.40;;;;;;;-0.26;99.50;99674.75;5075823;28;20041;-95
2021/12/14 02:36:17;;;;;;;;;;;;;;;-0.08;99.95;99710.13;5075683;28;20060;-95
2021/12/14 02:38:45;;;;;;;37.92;20.45;;;;;;;-0.29;99.85;99682.47;5074107;28;19927;-94
2021/12/14 02:41:11;;;;;;;37.53;20.92;;;;;;;-0.34;100.00;99676.25;5074950;28;20052;-94
2021/12/14 02:43:42;;;;;;;40.17;22.02;;;;;;;-0.36;100.00;99677.03;5074172;28;20052;-94
2021/12/14 02:46:12;;;;;;;41.47;21.50;;;;;;;-0.27;100.00;99672.97;5074295;28;20098;-95
2021/12/14 02:48:40;;;;;;;38.58;20.85;;;;;;;-0.33;100.00;99661.44;5074960;28;20055;-96
2021/12/14 02:51:10;;;;;;;38.80;19.38;;;;;;;-0.36;100.00;99662.22;5068304;28;20041;-95
2021/12/14 02:53:38;;;;;;;41.42;21.15;;;;;;;-0.41;100.00;99650.75;5063136;28;20041;-96
2021/12/14 02:56:12;;;;;;;34.50;20.35;;;;;;;-0.37;100.00;99665.66;5062911;28;20487;-95
2021/12/14 02:58:40;;;;;;;33.53;18.98;;;;;;;-0.33;100.00;99664.06;5062627;28;20407;-95
2021/12/14 03:01:07;;;;;;;33.78;19.50;;;;;;;-0.34;100.00;99664.91;5062550;28;20144;-94
2021/12/14 03:03:33;;;;;;;36.15;19.75;;;;;;;-0.45;100.00;99656.72;5061755;28;20041;-94
2021/12/14 03:06:00;;;;;;;39.50;20.45;;;;;;;-0.42;100.00;99654.19;5061158;28;20048;-95
2021/12/14 03:08:29;;;;;;;39.08;21.70;;;;;;;-0.36;100.00;99662.22;5061285;28;20048;-96
2021/12/14 03:14:05;;;;;;;37.63;19.35;;;;;;;-0.40;100.00;99639.47;5095323;27;20382;-95
2021/12/14 03:16:36;;;;;;;34.78;19.25;;;;;;;-0.45;100.00;99635.81;5095435;28;20098;-93
2021/12/14 03:19:06;;;;;;;34.05;19.15;;;;;;;-0.48;100.00;99644.47;5096863;28;20092;-94
2021/12/14 03:21:34;;;;;;;30.73;17.85;;;;;;;-0.55;100.00;99638.97;5095803;28;20098;-95
2021/12/14 03:24:04;;;;;;;33.20;17.90;;;;;;;-0.58;100.00;99638.91;5095595;28;20510;-94
2021/12/14 03:26:32;;;;;;;32.20;16.58;;;;;;;-0.37;100.00;99683.97;5095813;28;20071;-95
2021/12/14 03:29:03;;;;;;;32.97;19.65;;;;;;;-0.38;100.00;99682.19;5095583;28;20047;-94
2021/12/14 03:31:33;;;;;;;32.85;17.48;;;;;;;-0.43;100.00;99666.38;5094809;28;20048;-94
2021/12/14 03:34:06;;;;;;;31.30;16.77;;;;;;;-0.40;100.00;99681.25;5095191;28;20106;-96
2021/12/14 03:36:35;;;;;;;30.30;16.83;;;;;;;-0.42;100.00;99665.53;5095726;28;20127;-94
2021/12/14 03:39:09;;;;;;;28.65;15.38;;;;;;;-0.46;100.00;99652.31;5095470;28;20044;-94
2021/12/14 03:41:39;;;;;;;27.92;16.45;;;;;;;-0.31;100.00;99685.91;5095735;28;20040;-95
2021/12/14 03:44:10;;;;;;;33.60;17.75;;;;;;;-0.47;100.00;99658.41;5097077;28;20036;-95
2021/12/14 03:46:45;;;;;;;32.00;17.23;;;;;;;-0.34;100.00;99685.81;5096514;28;20044;-95
2021/12/14 03:49:11;;;;;;;27.90;16.58;;;;;;;-0.52;100.00;99649.50;5095362;28;20454;-95
2021/12/14 03:51:39;;;;;;;30.20;18.00;;;;;;;-0.49;100.00;99655.75;5094682;28;20044;-95
2021/12/14 03:54:05;;;;;;;30.08;18.17;;;;;;;-0.52;100.00;99654.75;5096572;28;20104;-95
2021/12/14 03:56:31;;;;;;;37.58;19.60;;;;;;;-0.38;100.00;99656.06;5096909;28;20078;-95
2021/12/14 03:58:57;;;;;;;30.98;17.73;;;;;;;-0.26;100.00;99652.94;5094406;28;20052;-95
2021/12/14 04:01:25;;;;;;;35.75;20.23;;;;;;;-0.23;100.00;99653.03;5092811;28;20120;-94
2021/12/14 04:03:57;;;;;;;33.20;18.90;;;;;;;0.14;99.45;99682.91;5094153;28;20475;-94
2021/12/14 04:06:23;;;;;;;31.50;18.33;;;;;;;-0.06;98.99;99648.31;5094241;28;20059;-94
2021/12/14 04:08:50;;;;;;;31.92;17.55;;;;;;;-0.11;99.29;99642.06;5095958;28;20055;-95
2021/12/14 04:11:19;;;;;;;35.22;18.77;;;;;;;-0.05;98.72;99656.19;5099252;28;20146;-95
2021/12/14 04:13:54;;;;;;;31.83;17.45;;;;;;;-0.14;98.99;99647.22;5096279;28;20044;-95
2021/12/14 04:16:23;;;;;;;32.58;17.88;;;;;;;-0.09;98.86;99679.59;5095829;28;20048;-94
2021/12/14 04:18:49;;;;;;;;;;;;;;;-0.11;99.13;99686.50;5096491;28;20052;-95
2021/12/14 04:21:17;;;;;;;34.63;19.92;;;;;;;-0.43;99.36;99649.81;5095099;28;20334;-95
2021/12/14 04:23:49;;;;;;;34.47;18.58;;;;;;;-0.48;100.00;99636.63;5089959;28;20478;-95
2021/12/14 04:26:16;;;;;;;32.20;17.55;;;;;;;-0.54;100.00;99641.66;5081474;28;20048;-95
2021/12/14 04:28:46;;;;;;;35.05;18.23;;;;;;;-0.33;100.00;99678.00;5081085;28;20052;-95
2021/12/14 04:31:12;;;;;;;32.60;17.40;;;;;;;-0.55;100.00;99644.22;5080943;28;20460;-96
2021/12/14 04:33:42;;;;;;;32.70;16.35;;;;;;;-0.64;100.00;99647.41;5082832;28;20033;-96
2021/12/14 04:36:12;;;;;;;28.88;16.27;;;;;;;-0.57;100.00;99664.16;5082542;28;20041;-95
2021/12/14 04:54:13;;;;;;;30.02;15.77;;;;;;;-0.65;100.00;99659.59;5117320;27;20128;-95
2021/12/14 04:56:43;;;;;;;29.70;16.13;;;;;;;-0.75;100.00;99639.25;5095440;28;20485;-96
2021/12/14 04:59:15;;;;;;;28.30;17.17;;;;;;;-0.70;100.00;99655.94;5096030;28;20569;-94
2021/12/14 05:01:44;;;;;;;32.17;16.90;;;;;;;-0.77;100.00;99651.38;5096090;28;20040;-95
2021/12/14 05:04:15;;;;;;;;;;;;;;;-0.49;100.00;99686.22;5074636;28;20044;-94
2021/12/14 05:09:43;;;;;;;31.42;19.15;;;;;;;-0.31;100.00;99644.06;5094138;27;20397;-93
2021/12/14 05:12:11;;;;;;;33.75;18.35;;;;;;;-0.27;99.50;99645.94;5094755;28;20044;-95
2021/12/14 05:14:40;;;;;;;34.75;17.50;;;;;;;-0.24;99.63;99661.72;5094696;28;20045;-94
2021/12/14 05:17:10;;;;;;;36.53;18.73;;;;;;;-0.25;99.98;99673.03;5094379;28;20052;-95
2021/12/14 05:19:40;;;;;;;38.05;19.90;;;;;;;-0.38;99.84;99657.81;5094559;28;20076;-94
2021/12/14 05:22:09;;;;;;;33.00;17.38;;;;;;;-0.52;100.00;99644.28;5095118;28;20140;-94
2021/12/14 05:24:38;;;;;;;37.45;19.08;;;;;;;-0.37;100.00;99678.72;5094553;28;20417;-94
2021/12/14 05:27:09;;;;;;;33.08;18.70;;;;;;;-0.54;100.00;99659.94;5094520;28;20047;-93
2021/12/14 05:29:39;;;;;;;34.85;18.38;;;;;;;-0.53;100.00;99664.31;5095097;28;20131;-94
2021/12/14 05:32:09;;;;;;;33.15;19.50;;;;;;;-0.69;100.00;99642.06;5094916;28;20062;-94
2021/12/14 05:34:38;;;;;;;32.15;17.83;;;;;;;-0.80;100.00;99643.44;5095730;28;20432;-95
2021/12/14 05:37:04;;;;;;;;;;;;;;;-0.68;100.00;99693.44;5096353;28;20040;-94
2021/12/14 05:45:36;;;;;;;28.48;16.63;;;;;;;-0.91;100.00;99673.50;5151510;27;20375;-94
2021/12/14 05:48:02;;;;;;;28.65;16.92;;;;;;;-0.97;100.00;99649.84;5134763;27;20051;-95
2021/12/14 05:50:30;;;;;;;27.00;15.15;;;;;;;-0.97;100.00;99658.53;5134601;27;20078;-95
2021/12/14 05:52:56;;;;;;;27.52;16.25;;;;;;;-0.99;100.00;99662.81;5135810;28;20501;-94
2021/12/14 05:55:25;;;;;;;28.60;16.52;;;;;;;-0.98;100.00;99667.19;5135698;28;20032;-95
2021/12/14 05:57:51;;;;;;;30.23;16.73;;;;;;;-1.05;100.00;99649.56;5135473;27;20051;-95
2021/12/14 06:00:19;;;;;;;29.50;16.45;;;;;;;-1.01;100.00;99656.66;5135355;28;20044;-95
2021/12/14 06:02:48;;;;;;;30.70;16.70;;;;;;;-0.98;100.00;99654.16;5136443;28;20397;-95
2021/12/14 06:05:17;;;;;;;30.38;16.80;;;;;;;-0.98;100.00;99661.09;5139134;27;20069;-94
2021/12/14 06:07:44;;;;;;;31.50;17.77;;;;;;;-1.02;100.00;99667.06;5138503;27;20073;-96
2021/12/14 06:10:13;;;;;;;38.78;21.80;;;;;;;-1.00;100.00;99675.81;5138416;28;20043;-95
2021/12/14 06:12:40;;;;;;;35.85;20.40;;;;;;;-0.96;100.00;99685.53;5135614;27;20051;-94
2021/12/14 06:15:11;;;;;;;30.83;17.42;;;;;;;-0.94;100.00;99691.69;5135972;27;20051;-95
2021/12/14 06:17:39;;;;;;;32.53;17.05;;;;;;;-1.00;100.00;99678.44;5135982;27;20046;-95
2021/12/14 06:20:12;;;;;;;27.88;16.42;;;;;;;-1.02;100.00;99680.97;5137000;27;20043;-96
2021/12/14 06:22:39;;;;;;;35.60;18.75;;;;;;;-0.96;100.00;99685.53;5137428;27;20052;-94
2021/12/14 06:25:09;;;;;;;32.95;18.30;;;;;;;-0.88;100.00;99691.91;5136377;27;20039;-93
2021/12/14 06:27:36;;;;;;;33.08;18.08;;;;;;;-0.54;100.00;99703.44;5135927;27;20043;-93
2021/12/14 06:30:07;;;;;;;35.97;18.73;;;;;;;-0.60;100.00;99696.31;5137601;27;20393;-94
2021/12/14 06:35:40;;;;;;;30.40;18.98;;;;;;;-0.63;99.75;99714.47;5096439;27;20862;-95
2021/12/14 06:41:17;;;;;;;43.67;25.63;;;;;;;-0.93;100.00;99706.50;5137457;27;20370;-95
2021/12/14 06:46:47;;;;;;;37.83;21.58;;;;;;;-0.95;100.00;99697.78;5096878;27;20385;-94
2021/12/14 06:49:15;;;;;;;38.15;21.88;;;;;;;-0.97;100.00;99699.44;5099482;28;20048;-95
2021/12/14 06:51:44;;;;;;;28.60;16.92;;;;;;;-0.97;100.00;99699.44;5100533;28;20049;-94
2021/12/14 06:54:14;;;;;;;27.92;16.15;;;;;;;-1.01;100.00;99701.03;5100786;28;20043;-94
2021/12/14 06:56:41;;;;;;;32.50;19.25;;;;;;;-0.86;100.00;99703.28;5099441;28;20057;-94
2021/12/14 06:59:10;;;;;;;37.92;20.17;;;;;;;-0.84;100.00;99704.22;5100919;28;20044;-95
2021/12/14 07:01:40;;;;;;;43.58;19.52;;;;;;;-0.69;100.00;99719.53;5102031;28;20520;-95
2021/12/14 07:04:10;;;;;;;38.85;20.67;;;;;;;-0.80;100.00;99707.81;5100094;28;20051;-94
2021/12/14 07:06:40;;;;;;;46.72;23.52;;;;;;;-0.71;100.00;99698.56;5097396;28;20076;-95
2021/12/14 07:09:14;;;;;;;;;;;;;;;-0.35;100.00;99754.56;5099395;28;20048;-96
2021/12/14 07:11:47;;;;;;;39.22;21.55;;;;;;;-0.60;100.00;99701.53;5103324;28;19916;-95
2021/12/14 07:14:24;;;;;;;30.77;18.63;;;;;;;-0.51;nan;99707.06;5101570;28;20074;-95
2021/12/14 07:16:51;;;;;;;37.88;20.95;;;;;;;-0.38;100.00;99712.69;5102444;28;20045;-94
2021/12/14 07:19:39;;;;;;;45.08;25.55;;;;;;;-0.26;100.00;99711.34;5101253;28;20540;-95
2021/12/14 07:22:08;;;;;;;33.72;18.30;;;;;;;-0.21;100.00;99717.59;5100201;28;20052;-95
2021/12/14 07:24:37;;;;;;;30.92;18.17;;;;;;;-0.14;100.00;99709.94;5102061;28;20070;-95
2021/12/14 07:27:19;;;;;;;33.72;18.90;;;;;;;-0.04;100.00;99714.63;5101202;28;20070;-95
2021/12/14 07:29:46;;;;;;;39.50;19.45;;;;;;;0.02;100.00;99721.75;5101188;28;20048;-95
2021/12/14 07:32:13;;;;;;;46.17;22.88;;;;;;;0.11;100.00;99716.78;5101454;28;20044;-94
2021/12/14 07:34:40;;;;;;;43.78;22.90;;;;;;;0.17;99.91;99710.03;5102679;28;20045;-93
2021/12/14 07:37:07;;;;;;;37.20;21.13;;;;;;;0.28;99.26;99720.78;5101614;28;20084;-95
2021/12/14 07:39:34;;;;;;;44.53;24.23;;;;;;;0.30;98.90;99713.88;5103345;28;20049;-95
2021/12/14 07:42:00;;;;;;;276.23;96.22;;;;;;;0.39;99.09;99715.88;5103572;28;20048;-95
2021/12/14 07:44:29;;;;;;;138.02;53.78;;;;;;;0.46;98.13;99720.47;5099667;28;20040;-95
2021/12/14 07:46:58;;;;;;;97.35;42.45;;;;;;;0.65;98.51;99734.06;5102250;28;20047;-95
2021/12/14 07:49:26;;;;;;;109.78;46.33;;;;;;;0.71;98.06;99722.00;5103782;28;20108;-95
2021/12/14 07:51:57;;;;;;;84.22;36.90;;;;;;;0.86;97.68;99725.91;5103722;28;20044;-96
2021/12/14 07:54:27;;;;;;;67.38;31.30;;;;;;;0.91;96.59;99717.34;5103132;28;20048;-96
2021/12/14 07:56:59;;;;;;;53.83;24.98;;;;;;;1.13;95.03;99728.34;5095906;28;20045;-96
2021/12/14 07:59:28;;;;;;;46.80;25.33;;;;;;;1.26;94.46;99738.34;5088609;28;20044;-95
2021/12/14 08:02:11;;;;;;;39.10;23.15;;;;;;;1.39;93.78;99739.53;5088623;28;20044;-95
2021/12/14 08:04:39;;;;;;;42.35;21.77;;;;;;;1.49;93.08;99744.13;5088182;28;20067;-96
2021/12/14 08:07:07;;;;;;;44.33;23.88;;;;;;;1.51;91.48;99731.09;5086336;28;20049;-94
2021/12/14 08:09:47;;;;;;;53.10;31.23;;;;;;;1.62;90.96;99732.22;5085692;28;20081;-95
2021/12/14 08:12:27;;;;;;;;;;;;;;;1.99;90.79;99769.81;5089034;28;20060;-96
2021/12/14 08:15:01;;;;;;;52.72;30.38;;;;;;;2.00;89.46;99748.00;5087015;28;19927;-96
2021/12/14 08:17:28;;;;;;;57.38;31.50;;;;;;;1.85;88.59;99707.44;5087987;28;20045;-96
2021/12/14 08:19:54;;;;;;;51.30;30.08;;;;;;;1.98;89.17;99707.72;5087498;28;20526;-95
2021/12/14 08:22:32;;;;;;;59.72;30.60;;;;;;;2.32;88.80;99738.22;5090779;28;20041;-96
2021/12/14 08:24:59;;;;;;;59.80;32.72;;;;;;;2.34;88.74;99714.59;5088203;28;20033;-95
2021/12/14 08:27:42;;;;;;;53.45;31.55;;;;;;;2.51;87.54;99714.97;5089051;28;20041;-96
2021/12/14 08:30:14;;;;;;;65.13;33.33;;;;;;;2.65;87.23;99716.13;5090346;28;20044;-96
2021/12/14 08:32:53;;;;;;;59.50;32.20;;;;;;;2.88;85.85;99725.34;5090053;28;20123;-94
2021/12/14 08:35:21;;;;;;;57.20;32.28;;;;;;;2.88;85.83;99709.59;5087741;28;20036;-95
2021/12/14 08:37:58;;;;;;;66.15;35.47;;;;;;;3.14;85.25;99726.69;5089904;28;20056;-96
2021/12/14 08:43:50;;;;;;;84.60;40.17;;;;;;;3.43;84.26;99743.88;5070103;28;20045;-96
2021/12/14 08:46:23;;;;;;;71.63;35.78;;;;;;;3.24;82.76;99703.22;5069731;28;20503;-95
2021/12/14 08:48:53;;;;;;;70.53;34.90;;;;;;;3.35;82.64;99713.91;5069951;28;20025;-96
2021/12/14 08:51:25;;;;;;;63.88;31.67;;;;;;;3.40;82.15;99709.59;5066103;28;20045;-96
2021/12/14 08:54:04;;;;;;;56.88;28.90;;;;;;;3.44;81.19;99703.53;5070262;28;20414;-96
2021/12/14 08:56:34;;;;;;;52.40;28.17;;;;;;;3.74;81.20;99747.00;5068466;28;20075;-95
2021/12/14 08:59:06;;;;;;;49.50;28.90;;;;;;;3.57;80.23;99707.25;5071285;28;20064;-95
2021/12/14 09:26:49;;;;;;;35.60;21.25;;;;;;;4.35;76.88;99715.41;6179713;22;1613284;-95
2021/12/14 09:29:18;;;;;;;36.80;20.92;;;;;;;4.46;76.45;99703.28;6236505;23;20048;-96
2021/12/14 09:31:48;;;;;;;32.60;19.33;;;;;;;4.62;76.00;99707.00;6237154;23;20017;-96
2021/12/14 09:34:26;;;;;;;38.95;20.08;;;;;;;4.74;75.08;99716.78;6238638;23;20016;-96
2021/12/14 09:37:00;;;;;;;32.92;19.10;;;;;;;4.73;74.77;99704.50;6236493;23;20070;-96
2021/12/14 09:39:30;;;;;;;39.65;22.20;;;;;;;4.77;74.79;99703.66;6236807;23;20021;-96
2021/12/14 09:42:00;;;;;;;66.53;45.47;;;;;;;4.88;75.14;99707.28;6199959;23;20021;-96
2021/12/14 09:44:31;;;;;;;426.60;252.80;;;;;;;4.97;75.18;99703.00;6200464;23;20027;-95
2021/12/14 09:47:01;;;;;;;84.30;53.72;;;;;;;4.99;74.41;99696.88;6204241;22;20051;-95
2021/12/14 09:49:28;;;;;;;72.93;47.72;;;;;;;4.88;74.35;99690.56;6201401;23;20045;-95
2021/12/14 09:52:02;;;;;;;71.20;46.60;;;;;;;5.01;73.91;99696.84;6206094;23;20017;-96
2021/12/14 09:54:29;;;;;;;44.08;26.42;;;;;;;5.18;73.52;99716.34;6204718;23;20047;-96
2021/12/14 09:57:01;;;;;;;46.97;26.08;;;;;;;5.15;73.11;99708.44;6201437;23;20028;-95
2021/12/14 09:59:30;;;;;;;47.75;25.15;;;;;;;5.20;73.68;99701.44;6200771;23;20093;-95
2021/12/14 10:02:00;;;;;;;167.18;106.63;;;;;;;4.97;73.82;99669.59;6197148;23;20078;-95
2021/12/14 10:04:33;;;;;;;64.18;38.80;;;;;;;5.01;74.25;99668.75;6198139;23;20028;-96
2021/12/14 10:07:03;;;;;;;48.00;27.67;;;;;;;5.21;74.24;99674.22;6199823;22;20027;-95
2021/12/14 10:09:38;;;;;;;47.05;26.23;;;;;;;5.31;73.30;99654.97;6197552;23;20021;-94
2021/12/14 10:15:21;;;;;;;49.50;27.35;;;;;;;5.91;71.40;99676.50;5142770;27;20394;-95
2021/12/14 10:17:49;;;;;;;;;;;;;;;6.05;71.29;99676.63;5148516;28;20493;-95
2021/12/14 10:20:19;;;;;;;78.65;49.85;;;;;;;5.95;71.02;99651.03;5141877;28;20014;-95
2021/12/14 10:22:48;;;;;;;49.40;28.15;;;;;;;6.02;71.01;99644.03;5149057;28;20047;-95
2021/12/14 10:25:20;;;;;;;52.83;27.75;;;;;;;6.06;70.90;99641.44;5146629;28;20085;-94
2021/12/14 10:27:48;;;;;;;75.15;46.58;;;;;;;6.05;70.68;99625.56;5145814;28;20047;-95
2021/12/14 10:30:41;;;;;;;51.15;28.55;;;;;;;6.30;70.42;99661.78;5144691;28;20539;-95
2021/12/14 10:33:12;;;;;;;55.65;27.80;;;;;;;6.20;70.45;99638.84;5147661;28;20039;-96
2021/12/14 10:35:56;;;;;;;87.18;44.33;;;;;;;6.14;70.74;99620.34;5141928;28;20047;-94
2021/12/14 10:38:37;;;;;;;199.45;98.75;;;;;;;6.08;70.61;99615.91;5145391;28;20073;-95
2021/12/14 10:54:34;;;;;;;126.95;50.00;;;;;;;6.14;70.84;99615.06;6299344;22;1381995;-95
2021/12/14 10:57:06;;;;;;;135.73;59.40;;;;;;;6.06;72.01;99609.75;6302186;22;20015;-96
2021/12/14 10:59:35;;;;;;;175.35;74.43;;;;;;;6.34;72.08;99657.41;6302064;22;20071;-96
2021/12/14 11:02:01;;;;;;;;;;;;;;;6.35;72.18;99651.22;6302056;22;20016;-96
2021/12/14 11:04:38;;;;;;;72.10;35.53;;;;;;;6.15;72.49;99606.25;6303397;22;20322;-96
2021/12/14 11:07:08;;;;;;;76.75;38.13;;;;;;;6.24;72.61;99611.56;6302535;22;20027;-95
2021/12/14 11:12:58;;;;;;;91.57;43.45;;;;;;;6.55;71.53;99643.41;5166304;27;20393;-96
2021/12/14 11:15:27;;;;;;;116.28;61.22;;;;;;;6.39;71.71;99613.38;5142464;27;20048;-95
2021/12/14 11:21:12;;;;;;;85.35;41.38;;;;;;;6.71;72.35;99628.47;5153779;27;20373;-96
2021/12/14 11:23:44;;;;;;;64.55;36.38;;;;;;;6.60;72.70;99599.38;5128103;28;20071;-96
2021/12/14 11:26:16;;;;;;;61.00;35.25;;;;;;;6.66;72.12;99591.44;5121910;28;20507;-95
2021/12/14 11:28:49;;;;;;;72.87;36.33;;;;;;;6.78;72.24;99615.25;5119983;28;20036;-95
2021/12/14 11:31:20;;;;;;;63.38;35.95;;;;;;;6.85;72.60;99612.59;5121789;28;20276;-96
2021/12/14 11:33:51;;;;;;;64.55;36.25;;;;;;;6.85;73.20;99597.63;5123487;28;20109;-95
2021/12/14 11:36:24;;;;;;;72.88;36.95;;;;;;;7.11;72.50;99621.47;5126683;28;20054;-96
2021/12/14 11:38:57;;;;;;;73.47;36.83;;;;;;;7.02;72.35;99586.19;5124880;28;20116;-95
2021/12/14 11:41:34;;;;;;;65.97;36.72;;;;;;;7.17;73.51;99595.00;5127853;28;20043;-95
2021/12/14 11:44:09;;;;;;;67.43;36.95;;;;;;;7.20;73.24;99595.03;5127465;28;20043;-94
2021/12/14 11:46:51;;;;;;;68.85;38.08;;;;;;;7.14;73.26;99565.03;5126107;28;20052;-95
2021/12/14 11:49:19;;;;;;;73.72;38.72;;;;;;;7.25;73.10;99570.34;5125429;28;20036;-94
2021/12/14 11:51:53;;;;;;;72.47;40.03;;;;;;;7.28;73.05;99557.09;5127406;28;20096;-95
2021/12/14 11:54:21;;;;;;;69.40;37.42;;;;;;;7.36;72.67;99557.97;5128034;28;20070;-96
2021/12/14 11:56:49;;;;;;;94.80;46.75;;;;;;;7.53;73.07;99560.59;5127076;28;20051;-95
2021/12/14 11:59:17;;;;;;;91.45;43.70;;;;;;;7.56;72.91;99556.16;5124319;28;20032;-95
2021/12/14 12:01:49;;;;;;;80.50;43.30;;;;;;;7.74;71.74;99560.53;5124881;28;20048;-95
2021/12/14 12:04:19;;;;;;;77.88;40.28;;;;;;;7.75;71.70;99534.94;5123008;28;20044;-96
2021/12/14 12:09:53;;;;;;;74.10;39.33;;;;;;;8.03;71.19;99549.81;5125762;27;2291084;-95
2021/12/14 12:12:25;;;;;;;74.10;41.13;;;;;;;8.06;71.51;99529.50;5186016;27;20057;-94
2021/12/14 12:14:55;;;;;;;69.35;39.45;;;;;;;8.15;71.25;99524.16;5185764;27;20042;-95
2021/12/14 12:17:29;;;;;;;74.93;39.78;;;;;;;8.31;71.27;99525.84;5186940;27;20043;-94
2021/12/14 12:20:21;;;;;;;67.40;36.90;;;;;;;8.60;69.08;99530.09;5165117;27;20051;-94
2021/12/14 12:22:53;;;;;;;34.90;19.52;;;;;;;8.77;64.51;99528.22;5163346;27;20043;-94
2021/12/14 12:25:24;;;;;;;63.45;34.42;;;;;;;8.76;66.95;99499.94;5164628;27;20047;-96
2021/12/14 12:27:53;;;;;;;64.20;36.70;;;;;;;8.81;68.09;99503.44;5163197;27;20046;-95
2021/12/14 12:30:38;;;;;;;52.95;24.48;;;;;;;8.89;66.26;99497.19;5164633;27;20042;-95
2021/12/14 12:33:16;;;;;;;58.30;31.58;;;;;;;8.96;67.62;99499.78;5166185;27;20209;-95
2021/12/14 12:35:47;;;;;;;59.10;31.00;;;;;;;9.13;66.38;99496.06;5167073;27;20428;-93
2021/12/14 12:38:35;;;;;;;25.50;13.63;;;;;;;9.56;59.20;99492.97;5164384;27;20035;-94
2021/12/14 12:41:17;;;;;;;15.23;7.57;;;;;;;10.16;55.41;99481.59;5161603;27;20038;-94
2021/12/14 12:43:47;;;;;;;46.78;25.48;;;;;;;10.23;59.65;99478.81;5167433;27;20042;-95
2021/12/14 12:46:21;;;;;;;33.30;19.27;;;;;;;10.13;59.72;99476.31;5167342;27;20043;-95
2021/12/14 12:49:00;;;;;;;45.95;24.05;;;;;;;10.21;60.73;99501.91;5167876;27;20039;-95
2021/12/14 12:52:06;;;;;;;19.92;12.02;;;;;;;10.18;57.74;99496.63;5164909;27;20106;-95
2021/12/14 12:54:51;;;;;;;12.85;6.28;;;;;;;10.83;51.57;99471.75;5162948;27;20084;-95
2021/12/14 13:00:37;;;;;;;7.60;4.43;;;;;;;11.57;47.45;99476.59;5143961;27;20371;-96
2021/12/14 13:03:08;;;;;;;10.45;5.82;;;;;;;11.79;47.99;99495.69;5140900;27;20047;-93
2021/12/14 13:05:40;;;;;;;11.05;5.05;;;;;;;11.90;47.05;99479.50;5116512;28;20051;-95
2021/12/14 13:08:16;;;;;;;11.50;5.78;;;;;;;11.95;47.20;99474.06;5117732;28;20089;-92
2021/12/14 13:10:48;;;;;;;9.10;5.65;;;;;;;12.01;47.50;99469.47;5117744;28;20048;-93
2021/12/14 13:13:22;;;;;;;10.45;6.03;;;;;;;12.04;47.28;99493.44;5116485;28;20040;-96
2021/12/14 13:16:02;;;;;;;7.70;5.38;;;;;;;12.14;47.04;99470.09;5115456;28;20107;-93
2021/12/14 13:19:10;;;;;;;10.73;6.10;;;;;;;12.15;47.24;99460.34;5121140;28;20040;-94
2021/12/14 13:21:46;;;;;;;6.53;3.97;;;;;;;12.21;47.76;99469.06;5116485;28;20047;-94
2021/12/14 13:24:17;;;;;;;9.45;4.45;;;;;;;12.16;47.34;99451.41;5119735;28;20127;-92